createdAt,value
2023-04-04T00:00:53.495Z,102216.75
2023-04-04T00:03:21.782Z,102211.54
2023-04-04T00:05:51.831Z,102208.19
2023-04-04T00:08:20.231Z,102205.80
2023-04-04T00:10:48.361Z,102201.48
2023-04-04T00:13:16.562Z,102198.09
2023-04-04T00:15:44.727Z,102201.73
2023-04-04T00:18:12.910Z,102199.52
2023-04-04T00:20:41.526Z,102201.08
2023-04-04T00:23:11.290Z,102205.58
2023-04-04T00:25:39.473Z,102198.86
2023-04-04T00:28:07.594Z,102194.04
2023-04-04T00:30:35.834Z,102192.50
2023-04-04T00:33:04.658Z,102190.83
2023-04-04T00:35:33.551Z,102185.42
2023-04-04T00:38:01.894Z,102184.73
2023-04-04T00:40:30.288Z,102182.17
2023-04-04T00:43:00.598Z,102183.38
2023-04-04T00:45:28.911Z,102184.09
2023-04-04T00:47:58.831Z,102181.50
2023-04-04T00:50:27.095Z,102181.31
2023-04-04T00:52:56.463Z,102174.63
2023-04-04T00:55:25.871Z,102168.25
2023-04-04T00:57:54.478Z,102168.98
2023-04-04T01:00:22.928Z,102169.52
2023-04-04T01:02:51.629Z,102166.07
2023-04-04T01:05:19.731Z,102161.78
2023-04-04T01:07:48.511Z,102157.64
2023-04-04T01:10:17.331Z,102156.30
2023-04-04T01:12:45.831Z,102152.62
2023-04-04T01:15:14.255Z,102149.96
2023-04-04T01:17:43.776Z,102146.45
2023-04-04T01:20:16.245Z,102141.02
2023-04-04T01:22:51.117Z,102134.47
2023-04-04T01:25:27.910Z,102138.27
2023-04-04T01:27:59.337Z,102131.31
2023-04-04T01:30:32.258Z,102133.34
2023-04-04T01:33:11.059Z,102134.15
2023-04-04T01:35:50.796Z,102129.66
2023-04-04T01:38:49.731Z,102125.73
2023-04-04T01:41:20.565Z,102124.08
2023-04-04T01:43:56.256Z,102122.55
2023-04-04T01:46:25.827Z,102117.59
2023-04-04T01:48:54.058Z,102122.27
2023-04-04T01:51:27.168Z,102119.09
2023-04-04T01:53:55.861Z,102113.30
2023-04-04T01:56:24.798Z,102118.93
2023-04-04T01:58:54.042Z,102116.37
2023-04-04T02:01:22.318Z,102108.16
2023-04-04T02:03:50.788Z,102108.91
2023-04-04T02:06:19.691Z,102104.46
2023-04-04T02:08:48.264Z,102104.70
2023-04-04T02:11:17.684Z,102101.81
2023-04-04T02:13:46.455Z,102102.21
2023-04-04T02:16:16.826Z,102101.27
2023-04-04T02:18:45.166Z,102100.67
2023-04-04T02:21:13.733Z,102089.95
2023-04-04T02:23:41.870Z,102092.23
2023-04-04T02:26:10.052Z,102090.85
2023-04-04T02:28:39.909Z,102085.80
2023-04-04T02:31:07.989Z,102089.23
2023-04-04T02:33:36.464Z,102083.80
2023-04-04T02:36:06.393Z,102082.63
2023-04-04T02:38:34.796Z,102080.95
2023-04-04T02:41:05.994Z,102086.73
2023-04-04T02:43:34.364Z,102087.83
2023-04-04T02:46:14.354Z,102083.84
2023-04-04T02:48:47.263Z,102074.91
2023-04-04T02:51:15.903Z,102081.30
2023-04-04T02:53:44.118Z,102074.94
2023-04-04T02:56:20.130Z,102073.11
2023-04-04T02:58:48.655Z,102069.55
2023-04-04T03:01:16.895Z,102070.71
2023-04-04T03:03:45.522Z,102069.64
2023-04-04T03:06:15.161Z,102066.30
2023-04-04T03:08:43.404Z,102066.27
2023-04-04T03:11:12.217Z,102065.26
2023-04-04T03:13:40.867Z,102070.20
2023-04-04T03:16:08.976Z,102071.48
2023-04-04T03:18:45.443Z,102067.30
2023-04-04T03:21:14.195Z,102065.74
2023-04-04T03:23:43.218Z,102059.19
2023-04-04T03:26:11.729Z,102062.53
2023-04-04T03:28:39.885Z,102059.56
2023-04-04T03:31:08.278Z,102062.20
2023-04-04T03:33:40.126Z,102065.77
2023-04-04T03:36:14.382Z,102056.66
2023-04-04T03:38:43.041Z,102054.95
2023-04-04T03:41:11.714Z,102053.60
2023-04-04T03:43:40.027Z,102042.48
2023-04-04T03:46:09.239Z,102046.88
2023-04-04T03:48:37.504Z,102045.90
2023-04-04T03:51:08.090Z,102045.49
2023-04-04T03:53:37.449Z,102047.63
2023-04-04T03:56:05.655Z,102042.26
2023-04-04T03:58:36.435Z,102039.13
2023-04-04T04:01:04.941Z,102032.91
2023-04-04T04:03:33.292Z,102033.75
2023-04-04T04:06:01.641Z,102033.08
2023-04-04T04:08:29.762Z,102029.27
2023-04-04T04:11:04.283Z,102030.54
2023-04-04T04:13:36.386Z,102030.01
2023-04-04T04:16:05.360Z,102025.41
2023-04-04T04:18:34.227Z,102021.30
2023-04-04T04:21:04.300Z,102023.11
2023-04-04T04:23:33.379Z,102028.70
2023-04-04T04:26:01.591Z,102029.83
2023-04-04T04:28:33.815Z,102030.68
2023-04-04T04:31:08.534Z,102031.26
2023-04-04T04:33:42.789Z,102030.35
2023-04-04T04:36:11.660Z,102033.48
2023-04-04T04:38:57.735Z,102031.55
2023-04-04T04:41:29.486Z,102028.83
2023-04-04T04:43:57.814Z,102037.89
2023-04-04T04:46:27.073Z,102036.61
2023-04-04T04:48:55.279Z,102036.59
2023-04-04T04:51:27.568Z,102038.99
2023-04-04T04:53:57.064Z,102033.52
2023-04-04T04:56:25.527Z,102030.69
2023-04-04T04:58:55.071Z,102034.50
2023-04-04T05:01:26.710Z,102039.27
2023-04-04T05:03:56.834Z,102036.16
2023-04-04T05:06:31.573Z,102028.98
2023-04-04T05:09:00.219Z,102031.96
2023-04-04T05:11:34.826Z,102038.99
2023-04-04T05:14:04.005Z,102036.77
2023-04-04T05:16:36.487Z,102035.77
2023-04-04T05:19:05.724Z,102040.27
2023-04-04T05:21:38.537Z,102045.51
2023-04-04T05:24:08.358Z,102042.43
2023-04-04T05:26:38.256Z,102045.97
2023-04-04T05:29:07.180Z,102042.06
2023-04-04T05:31:35.745Z,102045.10
2023-04-04T05:34:10.036Z,102042.70
2023-04-04T05:36:39.655Z,102039.33
2023-04-04T05:39:08.091Z,102041.84
2023-04-04T05:41:40.802Z,102044.77
2023-04-04T05:44:27.582Z,102039.58
2023-04-04T05:46:57.300Z,102045.65
2023-04-04T05:49:25.921Z,102046.72
2023-04-04T05:51:59.482Z,102041.10
2023-04-04T05:54:28.467Z,102038.88
2023-04-04T05:56:57.585Z,102032.23
2023-04-04T05:59:38.985Z,102032.27
2023-04-04T06:02:08.458Z,102035.46
2023-04-04T06:04:41.192Z,102031.48
2023-04-04T06:07:11.563Z,102027.66
2023-04-04T06:09:40.782Z,102034.92
2023-04-04T06:12:09.369Z,102035.88
2023-04-04T06:14:37.968Z,102035.98
2023-04-04T06:17:07.624Z,102031.59
2023-04-04T06:19:36.833Z,102033.46
2023-04-04T06:22:04.931Z,102026.15
2023-04-04T06:24:37.022Z,102027.42
2023-04-04T06:27:06.736Z,102020.80
2023-04-04T06:29:37.451Z,102028.13
2023-04-04T06:32:07.590Z,102029.48
2023-04-04T06:34:39.423Z,102029.70
2023-04-04T06:37:07.993Z,102030.95
2023-04-04T06:39:50.606Z,102025.96
2023-04-04T06:42:26.085Z,102023.95
2023-04-04T06:44:54.915Z,102021.55
2023-04-04T06:47:23.107Z,102016.92
2023-04-04T06:49:51.587Z,102017.16
2023-04-04T06:52:20.488Z,102019.39
2023-04-04T06:54:48.699Z,102021.56
2023-04-04T06:57:18.406Z,102017.50
2023-04-04T06:59:46.657Z,102014.29
2023-04-04T07:02:14.726Z,102011.08
2023-04-04T07:04:43.166Z,102007.73
2023-04-04T07:07:12.427Z,102005.00
2023-04-04T07:09:40.499Z,102008.73
2023-04-04T07:12:08.609Z,102009.47
2023-04-04T07:14:37.161Z,102005.61
2023-04-04T07:17:13.685Z,101997.07
2023-04-04T07:19:49.838Z,101989.83
2023-04-04T07:22:18.104Z,101996.98
2023-04-04T07:24:46.341Z,101999.58
2023-04-04T07:27:16.049Z,101998.58
2023-04-04T07:29:44.129Z,102000.67
2023-04-04T07:32:12.481Z,101995.50
2023-04-04T07:34:41.842Z,101992.95
2023-04-04T07:37:09.902Z,101997.08
2023-04-04T07:39:38.409Z,101993.16
2023-04-04T07:42:06.846Z,101992.86
2023-04-04T07:44:35.108Z,101981.86
2023-04-04T07:47:09.962Z,101987.43
2023-04-04T07:49:39.030Z,101983.87
2023-04-04T07:52:07.308Z,101982.20
2023-04-04T07:54:36.298Z,101976.55
2023-04-04T07:57:10.238Z,101973.14
2023-04-04T07:59:38.407Z,101967.09
2023-04-04T08:02:07.392Z,101968.30
2023-04-04T08:04:35.757Z,101974.86
2023-04-04T08:07:04.086Z,101975.02
2023-04-04T08:09:34.596Z,101975.88
2023-04-04T08:12:03.635Z,101971.60
2023-04-04T08:14:31.951Z,101959.65
2023-04-04T08:17:00.282Z,101955.95
2023-04-04T08:19:28.448Z,101959.53
2023-04-04T08:21:56.855Z,101944.96
2023-04-04T08:24:27.041Z,101950.00
2023-04-04T08:27:04.498Z,101946.09
2023-04-04T08:29:34.820Z,101949.61
2023-04-04T08:32:03.318Z,101945.23
2023-04-04T08:34:32.143Z,101939.29
2023-04-04T08:37:00.480Z,101938.60
2023-04-04T08:39:28.701Z,101937.98
2023-04-04T08:42:02.903Z,101934.98
2023-04-04T08:44:32.888Z,101937.45
2023-04-04T08:47:05.527Z,101933.06
2023-04-04T08:49:38.241Z,101933.56
2023-04-04T08:52:07.773Z,101929.72
2023-04-04T08:54:39.116Z,101935.24
2023-04-04T08:57:08.603Z,101943.14
2023-04-04T08:59:37.440Z,101936.92
2023-04-04T09:02:09.748Z,101930.96
2023-04-04T09:04:39.605Z,101937.36
2023-04-04T09:07:09.310Z,101935.61
2023-04-04T09:09:39.318Z,101941.70
2023-04-04T09:12:08.416Z,101936.38
2023-04-04T09:14:39.990Z,101938.38
2023-04-04T09:17:10.981Z,101935.48
2023-04-04T09:19:39.365Z,101932.27
2023-04-04T09:22:09.183Z,101931.53
2023-04-04T09:24:41.899Z,101929.64
2023-04-04T09:27:11.637Z,101929.27
2023-04-04T09:29:41.245Z,101927.36
2023-04-04T09:32:10.529Z,101927.86
2023-04-04T09:34:38.899Z,101925.59
2023-04-04T09:37:07.558Z,101927.38
2023-04-04T09:39:40.488Z,101925.89
2023-04-04T09:42:08.974Z,101930.78
2023-04-04T09:44:37.219Z,101926.60
2023-04-04T09:50:01.073Z,101928.66
2023-04-04T09:52:36.042Z,101921.89
2023-04-04T09:55:06.656Z,101925.68
2023-04-04T09:57:38.038Z,101928.96
2023-04-04T10:00:11.324Z,101929.17
2023-04-04T10:02:47.058Z,101923.27
2023-04-04T10:05:16.862Z,101923.94
2023-04-04T10:07:45.006Z,101922.83
2023-04-04T10:10:14.023Z,101922.92
2023-04-04T10:12:46.990Z,101916.83
2023-04-04T10:15:16.632Z,101922.02
2023-04-04T10:17:45.804Z,101912.48
2023-04-04T10:20:14.161Z,101915.08
2023-04-04T10:22:44.990Z,101921.73
2023-04-04T10:25:14.334Z,101919.41
2023-04-04T10:27:42.422Z,101915.38
2023-04-04T10:30:11.392Z,101907.68
2023-04-04T10:33:02.627Z,101909.96
2023-04-04T10:35:31.957Z,101909.91
2023-04-04T10:38:03.088Z,101909.31
2023-04-04T10:40:35.973Z,101907.98
2023-04-04T10:43:05.861Z,101911.66
2023-04-04T10:45:40.661Z,101906.70
2023-04-04T10:48:10.641Z,101910.95
2023-04-04T10:50:39.547Z,101906.52
2023-04-04T10:53:08.774Z,101905.05
2023-04-04T10:55:39.183Z,101898.73
2023-04-04T10:58:09.005Z,101909.82
2023-04-04T11:00:51.950Z,101908.34
2023-04-04T11:03:20.331Z,101901.12
2023-04-04T11:05:51.167Z,101901.77
2023-04-04T11:08:27.420Z,101903.01
2023-04-04T11:10:57.625Z,101903.27
2023-04-04T11:13:27.334Z,101901.83
2023-04-04T11:15:58.131Z,101895.86
2023-04-04T11:18:33.991Z,101891.66
2023-04-04T11:21:05.381Z,101890.85
2023-04-04T11:24:15.929Z,101891.95
2023-04-04T11:26:46.197Z,101896.12
2023-04-04T11:29:22.427Z,101892.66
2023-04-04T11:31:51.526Z,101893.71
2023-04-04T11:34:33.326Z,101893.77
2023-04-04T11:37:17.942Z,101887.77
2023-04-04T11:39:59.162Z,101884.35
2023-04-04T11:42:34.440Z,101879.73
2023-04-04T11:45:10.378Z,101874.24
2023-04-04T11:47:39.395Z,101870.48
2023-04-04T11:50:10.183Z,101862.42
2023-04-04T11:52:40.988Z,101861.95
2023-04-04T11:55:20.093Z,101860.65
2023-04-04T11:57:51.623Z,101859.75
2023-04-04T12:00:47.124Z,101860.52
2023-04-04T12:03:21.922Z,101854.27
2023-04-04T12:05:50.268Z,101856.54
2023-04-04T12:08:19.118Z,101853.16
2023-04-04T12:10:47.251Z,101837.23
2023-04-04T12:13:16.487Z,101846.17
2023-04-04T12:15:45.307Z,101847.58
2023-04-04T12:18:22.176Z,101843.89
2023-04-04T12:20:54.335Z,101850.73
2023-04-04T12:23:22.478Z,101847.84
2023-04-04T12:25:54.943Z,101846.84
2023-04-04T12:28:23.557Z,101845.46
2023-04-04T12:30:52.184Z,101841.78
2023-04-04T12:33:21.334Z,101843.47
2023-04-04T12:35:53.726Z,101842.14
2023-04-04T12:38:21.862Z,101839.42
2023-04-04T12:40:51.535Z,101838.48
2023-04-04T12:43:21.014Z,101835.52
2023-04-04T12:45:54.759Z,101836.86
2023-04-04T12:48:29.075Z,101833.20
2023-04-04T12:50:59.289Z,101830.90
2023-04-04T12:53:30.046Z,101832.89
2023-04-04T12:56:05.280Z,101836.20
2023-04-04T12:58:35.996Z,101838.77
2023-04-04T13:01:07.145Z,101838.27
2023-04-04T13:03:37.990Z,101836.88
2023-04-04T13:06:16.303Z,101839.21
2023-04-04T13:08:54.406Z,101838.69
2023-04-04T13:11:22.922Z,101838.37
2023-04-04T13:14:04.366Z,101837.41
2023-04-04T13:16:37.373Z,101833.73
2023-04-04T13:19:05.721Z,101829.49
2023-04-04T13:21:35.250Z,101826.45
2023-04-04T13:24:04.275Z,101819.92
2023-04-04T13:26:32.687Z,101816.69
2023-04-04T13:29:01.000Z,101818.61
2023-04-04T13:31:29.358Z,101815.54
2023-04-04T13:33:57.545Z,101823.87
2023-04-04T13:36:28.546Z,101825.11
2023-04-04T13:38:57.203Z,101819.25
2023-04-04T13:41:25.474Z,101819.77
2023-04-04T13:43:53.580Z,101818.37
2023-04-04T13:46:21.673Z,101816.64
2023-04-04T13:48:49.984Z,101817.86
2023-04-04T13:51:18.050Z,101811.12
2023-04-04T13:53:46.261Z,101812.86
2023-04-04T13:56:18.428Z,101812.17
2023-04-04T13:58:48.255Z,101813.92
2023-04-04T14:01:16.710Z,101815.84
2023-04-04T14:03:44.897Z,101812.54
2023-04-04T14:06:13.059Z,101813.06
2023-04-04T14:08:41.625Z,101815.14
2023-04-04T14:11:09.677Z,101805.77
2023-04-04T14:13:37.796Z,101810.98
2023-04-04T14:16:08.125Z,101812.20
2023-04-04T14:18:36.343Z,101809.09
2023-04-04T14:21:05.477Z,101806.83
2023-04-04T14:23:33.619Z,101804.56
2023-04-04T14:26:01.786Z,101800.38
2023-04-04T14:28:30.120Z,101803.05
2023-04-04T14:30:58.160Z,101804.79
2023-04-04T14:33:26.411Z,101806.86
2023-04-04T14:35:54.487Z,101807.57
2023-04-04T14:38:23.007Z,101804.88
2023-04-04T14:40:51.046Z,101802.33
2023-04-04T14:43:19.580Z,101803.69
2023-04-04T14:45:48.254Z,101805.08
2023-04-04T14:48:16.307Z,101810.45
2023-04-04T14:50:46.040Z,101812.30
2023-04-04T14:53:14.321Z,101814.98
2023-04-04T14:55:42.652Z,101811.25
2023-04-04T14:58:10.939Z,101812.36
2023-04-04T15:00:39.659Z,101814.12
2023-04-04T15:03:08.522Z,101814.09
2023-04-04T15:05:36.805Z,101817.97
2023-04-04T15:08:05.021Z,101819.52
2023-04-04T15:10:33.248Z,101821.35
2023-04-04T15:13:01.333Z,101825.80
2023-04-04T15:15:29.413Z,101821.81
2023-04-04T15:17:58.692Z,101821.95
2023-04-04T15:20:26.871Z,101815.00
2023-04-04T15:22:55.050Z,101815.25
2023-04-04T15:25:23.389Z,101811.30
2023-04-04T15:27:51.479Z,101814.91
2023-04-04T15:30:19.684Z,101809.64
2023-04-04T15:32:47.947Z,101809.42
2023-04-04T15:35:19.259Z,101812.09
2023-04-04T15:37:49.119Z,101807.73
2023-04-04T15:40:18.782Z,101805.41
2023-04-04T15:42:48.001Z,101805.14
2023-04-04T15:45:16.406Z,101803.69
2023-04-04T15:47:45.173Z,101801.27
2023-04-04T15:50:13.953Z,101802.58
2023-04-04T15:52:42.190Z,101800.41
2023-04-04T15:55:12.973Z,101801.17
2023-04-04T15:57:44.573Z,101802.84
2023-04-04T16:00:14.134Z,101806.05
2023-04-04T16:02:42.806Z,101810.67
2023-04-04T16:05:11.359Z,101811.92
2023-04-04T16:07:39.498Z,101807.65
2023-04-04T16:10:08.210Z,101804.70
2023-04-04T16:12:36.566Z,101803.48
2023-04-04T16:15:07.092Z,101804.27
2023-04-04T16:17:35.351Z,101806.70
2023-04-04T16:20:05.122Z,101801.31
2023-04-04T16:22:33.458Z,101802.38
2023-04-04T16:25:01.525Z,101807.06
2023-04-04T16:27:29.817Z,101802.20
2023-04-04T16:29:58.183Z,101798.22
2023-04-04T16:32:26.504Z,101805.98
2023-04-04T16:34:54.671Z,101798.65
2023-04-04T16:37:23.387Z,101801.45
2023-04-04T16:39:52.174Z,101804.82
2023-04-04T16:42:20.356Z,101810.29
2023-04-04T16:44:48.938Z,101807.30
2023-04-04T16:47:16.991Z,101808.58
2023-04-04T16:49:47.532Z,101808.94
2023-04-04T16:52:16.101Z,101810.45
2023-04-04T16:54:44.357Z,101809.90
2023-04-04T16:57:12.470Z,101807.77
2023-04-04T16:59:40.887Z,101803.02
2023-04-04T17:02:09.697Z,101802.04
2023-04-04T17:04:41.960Z,101798.10
2023-04-04T17:07:11.012Z,101794.85
2023-04-04T17:09:39.450Z,101793.40
2023-04-04T17:12:08.452Z,101793.27
2023-04-04T17:14:37.380Z,101800.08
2023-04-04T17:17:05.943Z,101799.60
2023-04-04T17:19:35.337Z,101798.60
2023-04-04T17:22:03.836Z,101795.83
2023-04-04T17:24:32.291Z,101790.83
2023-04-04T17:27:01.616Z,101792.12
2023-04-04T17:29:30.313Z,101791.73
2023-04-04T17:31:58.634Z,101790.33
2023-04-04T17:34:26.978Z,101789.78
2023-04-04T17:36:55.775Z,101786.89
2023-04-04T17:39:24.421Z,101788.26
2023-04-04T17:41:53.171Z,101784.72
2023-04-04T17:44:22.468Z,101788.46
2023-04-04T17:46:51.196Z,101782.55
2023-04-04T17:49:20.699Z,101782.66
2023-04-04T17:51:50.741Z,101786.80
2023-04-04T17:54:21.832Z,101789.52
2023-04-04T17:56:50.475Z,101790.40
2023-04-04T17:59:18.833Z,101789.26
2023-04-04T18:01:47.433Z,101795.21
2023-04-04T18:04:16.422Z,101789.66
2023-04-04T18:06:44.581Z,101792.09
2023-04-04T18:09:13.461Z,101788.76
2023-04-04T18:11:42.091Z,101786.58
2023-04-04T18:14:10.168Z,101781.61
2023-04-04T18:16:40.846Z,101787.04
2023-04-04T18:19:09.977Z,101784.10
2023-04-04T18:21:38.718Z,101784.37
2023-04-04T18:24:11.384Z,101785.15
2023-04-04T18:26:39.754Z,101788.00
2023-04-04T18:29:08.379Z,101787.61
2023-04-04T18:31:36.931Z,101780.80
2023-04-04T18:34:05.254Z,101785.04
2023-04-04T18:36:33.356Z,101786.92
2023-04-04T18:39:03.604Z,101780.19
2023-04-04T18:41:32.502Z,101776.53
2023-04-04T18:44:00.867Z,101785.55
2023-04-04T18:46:29.597Z,101781.19
2023-04-04T18:48:58.573Z,101787.16
2023-04-04T18:51:26.977Z,101784.40
2023-04-04T18:53:55.378Z,101782.89
2023-04-04T18:56:23.525Z,101783.52
2023-04-04T18:58:52.341Z,101777.71
2023-04-04T19:01:21.237Z,101775.08
2023-04-04T19:03:51.958Z,101775.28
2023-04-04T19:06:26.941Z,101771.41
2023-04-04T19:08:58.645Z,101771.14
2023-04-04T19:11:32.962Z,101772.84
2023-04-04T19:14:01.140Z,101771.96
2023-04-04T19:16:29.540Z,101770.23
2023-04-04T19:18:57.665Z,101768.01
2023-04-04T19:21:26.292Z,101766.67
2023-04-04T19:23:54.617Z,101767.76
2023-04-04T19:26:22.703Z,101761.11
2023-04-04T19:28:51.250Z,101761.65
2023-04-04T19:31:22.302Z,101767.03
2023-04-04T19:33:51.773Z,101763.80
2023-04-04T19:36:20.055Z,101764.48
2023-04-04T19:38:51.898Z,101765.50
2023-04-04T19:41:33.832Z,101764.34
2023-04-04T19:44:03.517Z,101759.98
2023-04-04T19:46:33.228Z,101760.50
2023-04-04T19:49:27.985Z,101758.98
2023-04-04T19:51:58.697Z,101756.66
2023-04-04T19:54:29.149Z,101754.29
2023-04-04T19:57:01.074Z,101760.65
2023-04-04T19:59:57.012Z,101756.06
2023-04-04T20:02:31.436Z,101755.02
2023-04-04T20:05:00.182Z,101760.12
2023-04-04T20:07:29.778Z,101753.77
2023-04-04T20:09:58.069Z,101757.52
2023-04-04T20:12:33.881Z,101755.30
2023-04-04T20:15:01.937Z,101753.75
2023-04-04T20:17:30.110Z,101754.94
2023-04-04T20:19:58.337Z,101755.48
2023-04-04T20:22:26.592Z,101753.47
2023-04-04T20:24:54.772Z,101753.42
2023-04-04T20:27:24.415Z,101752.86
2023-04-04T20:29:54.166Z,101751.98
2023-04-04T20:32:22.562Z,101754.89
2023-04-04T20:34:50.907Z,101754.91
2023-04-04T20:37:26.277Z,101754.10
2023-04-04T20:40:09.920Z,101754.63
2023-04-04T20:42:40.825Z,101745.88
2023-04-04T20:45:09.049Z,101752.67
2023-04-04T20:47:48.912Z,101744.29
2023-04-04T20:50:17.194Z,101743.65
2023-04-04T20:53:03.151Z,101740.95
2023-04-04T20:55:33.546Z,101741.84
2023-04-04T20:58:10.262Z,101746.27
2023-04-04T21:00:41.082Z,101742.08
2023-04-04T21:03:31.014Z,101739.83
2023-04-04T21:06:11.088Z,101743.21
2023-04-04T21:08:50.717Z,101747.98
2023-04-04T21:11:29.203Z,101745.39
2023-04-04T21:13:57.784Z,101742.20
2023-04-04T21:16:28.032Z,101741.27
2023-04-04T21:19:00.877Z,101742.21
2023-04-04T21:21:29.677Z,101740.49
2023-04-04T21:24:00.119Z,101740.03
2023-04-04T21:26:40.906Z,101739.79
2023-04-04T21:29:25.354Z,101737.30
2023-04-04T21:31:55.715Z,101732.95
2023-04-04T21:34:25.816Z,101730.48
2023-04-04T21:37:07.896Z,101727.38
2023-04-04T21:39:38.700Z,101728.25
2023-04-04T21:42:08.831Z,101730.84
2023-04-04T21:44:38.661Z,101729.77
2023-04-04T21:47:07.164Z,101728.85
2023-04-04T21:49:35.218Z,101728.56
2023-04-04T21:52:03.268Z,101726.04
2023-04-04T21:54:31.546Z,101726.39
2023-04-04T21:56:59.633Z,101728.88
2023-04-04T21:59:27.874Z,101727.26
2023-04-04T22:01:56.281Z,101728.58
2023-04-04T22:04:24.817Z,101731.98
2023-04-04T22:06:52.934Z,101731.05
2023-04-04T22:09:22.720Z,101729.27
2023-04-04T22:11:51.317Z,101728.91
2023-04-04T22:14:19.357Z,101730.00
2023-04-04T22:16:47.605Z,101730.86
2023-04-04T22:19:15.887Z,101730.70
2023-04-04T22:21:48.475Z,101730.21
2023-04-04T22:24:18.447Z,101728.16
2023-04-04T22:26:47.041Z,101727.03
2023-04-04T22:29:17.462Z,101725.43
2023-04-04T22:31:45.762Z,101723.70
2023-04-04T22:34:15.268Z,101721.48
2023-04-04T22:36:46.929Z,101719.61
2023-04-04T22:39:16.558Z,101717.07
2023-04-04T22:41:44.758Z,101715.06
2023-04-04T22:44:12.977Z,101708.07
2023-04-04T22:46:41.699Z,101708.66
2023-04-04T22:49:10.227Z,101704.59
2023-04-04T22:51:45.985Z,101705.16
2023-04-04T22:54:18.137Z,101703.16
2023-04-04T22:56:46.586Z,101699.80
2023-04-04T22:59:14.764Z,101699.17
2023-04-04T23:01:43.269Z,101697.89
2023-04-04T23:04:11.576Z,101698.23
2023-04-04T23:06:39.774Z,101693.24
2023-04-04T23:09:08.409Z,101693.89
2023-04-04T23:11:39.900Z,101693.79
2023-04-04T23:14:09.047Z,101690.52
2023-04-04T23:16:37.853Z,101688.41
2023-04-04T23:19:06.243Z,101691.53
2023-04-04T23:21:38.004Z,101689.60
2023-04-04T23:24:07.362Z,101690.30
2023-04-04T23:26:35.584Z,101692.69
2023-04-04T23:29:04.048Z,101691.55
2023-04-04T23:31:32.733Z,101682.83
2023-04-04T23:34:01.005Z,101682.63
2023-04-04T23:36:29.296Z,101680.17
2023-04-04T23:38:57.875Z,101679.64
2023-04-04T23:41:26.448Z,101676.20
2023-04-04T23:43:54.840Z,101675.35
2023-04-04T23:46:24.146Z,101674.83
2023-04-04T23:48:52.365Z,101670.21
2023-04-04T23:51:21.596Z,101669.91
2023-04-04T23:53:49.845Z,101664.27
2023-04-04T23:56:18.259Z,101664.11
2023-04-04T23:58:46.360Z,101661.98
